Calvin, Illinois
Current Conditions -  °F | °C
As of 2:35 AM on Friday 21 Nov 2014 (Local Time) from KCUL Reporting Station
Clear Clear  
Wind Chill: 21°   Ceiling: Unl
Heat Index: 21°   Visibility: 10mi
Dew Point: 20°   Wind: 3mph
Humidity: 96%   Direction: 360°N
Pressure: 30.4"   Gusts: NA
Location:  38.1681°N, 88.0517°W
Report Text: KCUL 210835Z AUTO 36003KT 10SM CLR M06/M07 A3040 RMK AO2 T10631069
Loading
Personal Weather Stations






























Interactive Weather Map New forecast layout! Learn more

10-Day Weather Forecast

Advertisements
Track Severe Weather on mobile